createdAt,value
2018-10-06T00:00:24.153Z,100934.01
2018-10-06T00:02:52.812Z,100932.84
2018-10-06T00:05:21.401Z,100926.66
2018-10-06T00:07:49.954Z,100922.04
2018-10-06T00:10:18.488Z,100920.72
2018-10-06T00:12:46.993Z,100918.25
2018-10-06T00:15:15.531Z,100921.27
2018-10-06T00:17:44.025Z,100916.81
2018-10-06T00:20:14.126Z,100913.28
2018-10-06T00:22:42.646Z,100917.86
2018-10-06T00:25:12.111Z,100911.33
2018-10-06T00:27:40.634Z,100907.91
2018-10-06T00:30:09.372Z,100907.87
2018-10-06T00:32:37.922Z,100909.97
2018-10-06T00:35:06.463Z,100906.84
2018-10-06T00:37:35.017Z,100908.89
2018-10-06T00:40:05.121Z,100903.41
2018-10-06T00:42:33.583Z,100907.77
2018-10-06T00:45:04.534Z,100896.69
2018-10-06T00:47:33.050Z,100899.27
2018-10-06T00:50:03.430Z,100902.59
2018-10-06T00:52:31.946Z,100901.39
2018-10-06T00:55:00.505Z,100890.94
2018-10-06T00:57:29.051Z,100890.80
2018-10-06T00:59:57.589Z,100884.30
2018-10-06T01:02:26.202Z,100881.63
2018-10-06T01:04:54.737Z,100882.75
2018-10-06T01:07:23.662Z,100880.08
2018-10-06T01:09:52.565Z,100879.02
2018-10-06T01:12:21.384Z,100878.72
2018-10-06T01:14:49.883Z,100876.63
2018-10-06T01:17:18.369Z,100874.86
2018-10-06T01:19:46.905Z,100869.80
2018-10-06T01:22:18.241Z,100873.64
2018-10-06T01:24:46.791Z,100870.39
2018-10-06T01:27:15.533Z,100865.23
2018-10-06T01:29:44.031Z,100867.23
2018-10-06T01:32:12.586Z,100865.16
2018-10-06T01:34:41.128Z,100855.41
2018-10-06T01:37:09.647Z,100855.19
2018-10-06T01:39:38.219Z,100848.02
2018-10-06T01:42:06.824Z,100839.84
2018-10-06T01:44:36.329Z,100838.03
2018-10-06T01:47:05.215Z,100840.13
2018-10-06T01:49:33.736Z,100844.17
2018-10-06T01:52:03.691Z,100838.69
2018-10-06T01:54:32.207Z,100835.81
2018-10-06T01:57:00.972Z,100839.22
2018-10-06T01:59:29.499Z,100841.31
2018-10-06T02:01:58.008Z,100829.78
2018-10-06T02:04:26.868Z,100830.62
2018-10-06T02:06:56.523Z,100825.73
2018-10-06T02:09:25.132Z,100829.27
2018-10-06T02:11:53.671Z,100822.22
2018-10-06T02:14:22.182Z,100823.09
2018-10-06T02:16:50.760Z,100815.12
2018-10-06T02:19:19.262Z,100815.88
2018-10-06T02:21:47.831Z,100812.98
2018-10-06T02:24:16.323Z,100813.87
2018-10-06T02:26:44.863Z,100808.94
2018-10-06T02:29:13.416Z,100814.16
2018-10-06T02:31:41.952Z,100806.61
2018-10-06T02:34:10.479Z,100799.41
2018-10-06T02:36:39.267Z,100797.38
2018-10-06T02:39:07.895Z,100794.27
2018-10-06T02:41:36.772Z,100791.75
2018-10-06T02:44:05.271Z,100789.70
2018-10-06T02:46:33.808Z,100787.27
2018-10-06T02:49:03.711Z,100790.39
2018-10-06T02:51:32.238Z,100788.12
2018-10-06T02:54:03.189Z,100791.77
2018-10-06T02:56:31.690Z,100794.69
2018-10-06T02:59:00.274Z,100792.42
2018-10-06T03:01:29.097Z,100792.45
2018-10-06T03:03:57.594Z,100787.39
2018-10-06T03:06:26.111Z,100784.29
2018-10-06T03:08:54.629Z,100787.92
2018-10-06T03:11:23.189Z,100784.22
2018-10-06T03:13:51.684Z,100788.48
2018-10-06T03:16:20.188Z,100788.28
2018-10-06T03:18:48.807Z,100789.13
2018-10-06T03:21:17.763Z,100785.48
2018-10-06T03:23:46.354Z,100781.94
2018-10-06T03:26:14.865Z,100780.56
2018-10-06T03:28:43.487Z,100774.05
2018-10-06T03:31:11.974Z,100780.64
2018-10-06T03:33:40.774Z,100777.08
2018-10-06T03:36:09.319Z,100771.23
2018-10-06T03:38:37.818Z,100769.53
2018-10-06T03:41:06.402Z,100772.87
2018-10-06T03:43:34.880Z,100772.92
2018-10-06T03:46:04.414Z,100775.80
2018-10-06T03:48:33.028Z,100773.59
2018-10-06T03:51:03.088Z,100773.42
2018-10-06T03:53:31.716Z,100766.52
2018-10-06T03:56:00.213Z,100761.31
2018-10-06T03:58:28.793Z,100766.36
2018-10-06T04:00:57.323Z,100763.10
2018-10-06T04:03:25.813Z,100767.39
2018-10-06T04:05:54.349Z,100767.82
2018-10-06T04:08:22.911Z,100765.36
2018-10-06T04:10:51.521Z,100756.63
2018-10-06T04:13:20.056Z,100754.18
2018-10-06T04:15:48.564Z,100754.41
2018-10-06T04:18:17.066Z,100754.32
2018-10-06T04:20:45.865Z,100739.28
2018-10-06T04:23:14.442Z,100739.51
2018-10-06T04:25:43.174Z,100731.43
2018-10-06T04:28:12.002Z,100728.93
2018-10-06T04:30:40.509Z,100727.49
2018-10-06T04:33:09.078Z,100724.39
2018-10-06T04:35:37.653Z,100730.09
2018-10-06T04:38:07.778Z,100720.16
2018-10-06T04:40:36.348Z,100722.11
2018-10-06T04:43:05.157Z,100725.36
2018-10-06T04:45:33.690Z,100721.13
2018-10-06T04:48:03.734Z,100718.63
2018-10-06T04:50:32.647Z,100722.98
2018-10-06T04:53:03.294Z,100718.82
2018-10-06T04:55:31.781Z,100719.55
2018-10-06T04:58:02.897Z,100721.73
2018-10-06T05:00:31.776Z,100718.58
2018-10-06T05:03:00.258Z,100713.42
2018-10-06T05:05:28.781Z,100704.27
2018-10-06T05:07:57.353Z,100706.86
2018-10-06T05:10:25.875Z,100705.95
2018-10-06T05:12:54.411Z,100704.42
2018-10-06T05:15:23.004Z,100702.89
2018-10-06T05:17:51.507Z,100691.34
2018-10-06T05:20:20.091Z,100693.39
2018-10-06T05:22:48.783Z,100691.76
2018-10-06T05:25:17.353Z,100696.62
2018-10-06T05:27:45.853Z,100695.60
2018-10-06T05:30:15.769Z,100697.05
2018-10-06T05:32:44.302Z,100694.03
2018-10-06T05:35:12.808Z,100693.62
2018-10-06T05:37:41.581Z,100684.62
2018-10-06T05:40:10.104Z,100685.03
2018-10-06T05:42:38.656Z,100686.38
2018-10-06T05:45:07.243Z,100685.16
2018-10-06T05:47:35.793Z,100683.69
2018-10-06T05:50:05.563Z,100682.76
2018-10-06T05:52:34.101Z,100678.95
2018-10-06T05:55:03.609Z,100675.10
2018-10-06T05:57:32.118Z,100672.41
2018-10-06T06:00:00.651Z,100673.44
2018-10-06T06:02:29.258Z,100674.17
2018-10-06T06:04:57.808Z,100679.23
2018-10-06T06:07:26.417Z,100677.89
2018-10-06T06:09:54.945Z,100679.01
2018-10-06T06:12:23.485Z,100681.92
2018-10-06T06:14:52.136Z,100681.59
2018-10-06T06:17:20.646Z,100675.57
2018-10-06T06:19:49.214Z,100684.98
2018-10-06T06:22:17.727Z,100685.72
2018-10-06T06:24:46.245Z,100680.92
2018-10-06T06:27:14.798Z,100677.67
2018-10-06T06:29:43.469Z,100674.23
2018-10-06T06:32:11.990Z,100672.95
2018-10-06T06:34:40.513Z,100671.67
2018-10-06T06:37:09.382Z,100668.73
2018-10-06T06:39:37.877Z,100662.89
2018-10-06T06:42:06.575Z,100662.52
2018-10-06T06:44:35.264Z,100661.73
2018-10-06T06:47:06.461Z,100662.38
2018-10-06T06:49:35.065Z,100660.33
2018-10-06T06:52:04.673Z,100660.92
2018-10-06T06:54:33.501Z,100657.62
2018-10-06T06:57:03.277Z,100649.55
2018-10-06T06:59:31.786Z,100650.77
2018-10-06T07:02:00.405Z,100644.95
2018-10-06T07:04:28.969Z,100647.55
2018-10-06T07:06:57.739Z,100642.16
2018-10-06T07:09:26.230Z,100646.57
2018-10-06T07:11:54.780Z,100649.97
2018-10-06T07:14:23.337Z,100654.08
2018-10-06T07:16:51.964Z,100652.92
2018-10-06T07:19:20.801Z,100646.68
2018-10-06T07:21:49.345Z,100648.77
2018-10-06T07:24:17.902Z,100643.21
2018-10-06T07:26:46.385Z,100643.86
2018-10-06T07:29:14.904Z,100642.64
2018-10-06T07:31:43.525Z,100638.77
2018-10-06T07:34:12.139Z,100642.42
2018-10-06T07:36:40.648Z,100642.77
2018-10-06T07:39:09.153Z,100638.78
2018-10-06T07:41:37.648Z,100629.03
2018-10-06T07:44:06.223Z,100628.78
2018-10-06T07:46:34.831Z,100632.38
2018-10-06T07:49:04.573Z,100631.55
2018-10-06T07:51:33.119Z,100624.50
2018-10-06T07:54:02.766Z,100632.36
2018-10-06T07:56:31.319Z,100634.00
2018-10-06T07:58:59.815Z,100630.44
2018-10-06T08:01:28.328Z,100632.81
2018-10-06T08:03:56.853Z,100630.42
2018-10-06T08:06:25.415Z,100628.78
2018-10-06T08:08:53.926Z,100629.48
2018-10-06T08:11:22.431Z,100626.38
2018-10-06T08:13:51.130Z,100627.33
2018-10-06T08:16:20.016Z,100625.36
2018-10-06T08:18:48.568Z,100624.95
2018-10-06T08:21:18.283Z,100627.76
2018-10-06T08:23:46.848Z,100627.69
2018-10-06T08:26:16.326Z,100619.47
2018-10-06T08:28:44.877Z,100619.53
2018-10-06T08:31:13.423Z,100619.58
2018-10-06T08:33:41.948Z,100622.40
2018-10-06T08:36:10.509Z,100617.47
2018-10-06T08:38:39.080Z,100617.97
2018-10-06T08:41:07.578Z,100616.11
2018-10-06T08:43:36.364Z,100610.92
2018-10-06T08:46:05.703Z,100604.14
2018-10-06T08:48:34.278Z,100596.84
2018-10-06T08:51:04.122Z,100593.17
2018-10-06T08:53:32.651Z,100593.27
2018-10-06T08:56:03.410Z,100591.45
2018-10-06T08:58:31.831Z,100592.83
2018-10-06T09:01:00.474Z,100585.52
2018-10-06T09:03:28.977Z,100585.86
2018-10-06T09:05:57.510Z,100583.75
2018-10-06T09:08:26.238Z,100582.67
2018-10-06T09:10:54.912Z,100573.66
2018-10-06T09:13:24.158Z,100570.39
2018-10-06T09:15:52.823Z,100571.47
2018-10-06T09:18:21.312Z,100572.86
2018-10-06T09:20:49.955Z,100559.72
2018-10-06T09:23:18.444Z,100558.63
2018-10-06T09:25:46.949Z,100560.50
2018-10-06T09:28:15.512Z,100551.97
2018-10-06T09:30:44.012Z,100551.17
2018-10-06T09:33:12.692Z,100545.13
2018-10-06T09:35:41.321Z,100544.50
2018-10-06T09:38:09.924Z,100539.11
2018-10-06T09:40:39.006Z,100540.58
2018-10-06T09:43:07.472Z,100541.27
2018-10-06T09:45:36.152Z,100541.66
2018-10-06T09:48:06.155Z,100540.81
2018-10-06T09:50:34.655Z,100542.68
2018-10-06T09:53:05.504Z,100534.31
2018-10-06T09:55:35.289Z,100531.54
2018-10-06T09:58:05.742Z,100528.14
2018-10-06T10:00:39.477Z,100527.45
2018-10-06T10:03:13.206Z,100523.72
2018-10-06T10:05:48.257Z,100529.03
2018-10-06T10:08:17.229Z,100522.80
2018-10-06T10:10:46.249Z,100520.53
2018-10-06T10:13:14.774Z,100517.08
2018-10-06T10:15:43.383Z,100513.62
2018-10-06T10:18:12.290Z,100510.72
2018-10-06T10:20:41.401Z,100507.80
2018-10-06T10:23:10.273Z,100498.41
2018-10-06T10:25:39.236Z,100504.89
2018-10-06T10:30:36.018Z,100500.87
2018-10-06T10:33:06.041Z,100496.62
2018-10-06T10:35:34.553Z,100490.18
2018-10-06T10:38:05.472Z,100485.73
2018-10-06T10:40:34.027Z,100484.73
2018-10-06T10:43:05.766Z,100479.89
2018-10-06T10:45:34.572Z,100476.25
2018-10-06T10:48:04.784Z,100478.38
2018-10-06T10:50:33.943Z,100476.23
2018-10-06T10:53:04.248Z,100470.77
2018-10-06T10:55:32.883Z,100463.56
2018-10-06T10:58:03.949Z,100455.69
2018-10-06T11:00:32.793Z,100458.48
2018-10-06T11:03:02.994Z,100454.55
2018-10-06T11:05:31.520Z,100455.77
2018-10-06T11:08:00.053Z,100447.66
2018-10-06T11:10:28.649Z,100446.13
2018-10-06T11:12:57.138Z,100443.73
2018-10-06T11:15:25.659Z,100447.49
2018-10-06T11:17:54.183Z,100441.43
2018-10-06T11:20:23.095Z,100432.61
2018-10-06T11:22:51.839Z,100434.08
2018-10-06T11:25:20.398Z,100433.70
2018-10-06T11:27:48.984Z,100424.06
2018-10-06T11:30:17.480Z,100423.09
2018-10-06T11:32:46.033Z,100426.27
2018-10-06T11:35:14.706Z,100422.90
2018-10-06T11:37:43.453Z,100421.94
2018-10-06T11:40:12.205Z,100417.16
2018-10-06T11:42:40.712Z,100420.12
2018-10-06T11:45:09.542Z,100415.31
2018-10-06T11:47:38.249Z,100416.23
2018-10-06T11:50:06.916Z,100405.99
2018-10-06T11:52:35.588Z,100405.74
2018-10-06T11:55:06.141Z,100401.47
2018-10-06T11:57:34.677Z,100399.19
2018-10-06T12:00:05.272Z,100393.34
2018-10-06T12:02:34.268Z,100396.47
2018-10-06T12:05:04.621Z,100390.88
2018-10-06T12:07:33.162Z,100386.64
2018-10-06T12:10:08.340Z,100384.64
2018-10-06T12:12:36.880Z,100380.15
2018-10-06T12:15:06.199Z,100369.34
2018-10-06T12:17:34.824Z,100372.95
2018-10-06T12:20:05.160Z,100368.72
2018-10-06T12:22:33.704Z,100361.51
2018-10-06T12:25:04.580Z,100367.08
2018-10-06T12:27:33.154Z,100361.41
2018-10-06T12:30:03.748Z,100364.03
2018-10-06T12:32:32.297Z,100366.80
2018-10-06T12:35:00.869Z,100365.00
2018-10-06T12:37:29.772Z,100358.98
2018-10-06T12:39:58.456Z,100362.34
2018-10-06T12:42:27.029Z,100355.09
2018-10-06T12:44:55.854Z,100357.51
2018-10-06T12:47:24.493Z,100363.38
2018-10-06T12:49:53.073Z,100355.58
2018-10-06T12:52:21.631Z,100352.91
2018-10-06T12:54:50.267Z,100345.44
2018-10-06T12:57:18.836Z,100344.91
2018-10-06T12:59:47.360Z,100341.93
2018-10-06T13:02:16.096Z,100346.47
2018-10-06T13:04:44.613Z,100341.42
2018-10-06T13:07:13.109Z,100343.23
2018-10-06T13:09:41.646Z,100350.56
2018-10-06T13:12:10.534Z,100348.58
2018-10-06T13:14:39.080Z,100348.81
2018-10-06T13:17:07.636Z,100344.77
2018-10-06T13:19:36.169Z,100343.07
2018-10-06T13:22:05.737Z,100344.72
2018-10-06T13:24:34.320Z,100350.38
2018-10-06T13:27:05.211Z,100337.45
2018-10-06T13:29:33.729Z,100338.23
2018-10-06T13:32:03.754Z,100335.89
2018-10-06T13:34:32.411Z,100345.16
2018-10-06T13:37:03.735Z,100342.56
2018-10-06T13:39:34.294Z,100339.68
2018-10-06T13:42:04.638Z,100344.55
2018-10-06T13:44:33.481Z,100340.00
2018-10-06T13:47:04.420Z,100335.85
2018-10-06T13:49:33.075Z,100341.61
2018-10-06T13:52:03.646Z,100338.48
2018-10-06T13:54:32.224Z,100338.52
2018-10-06T13:57:00.877Z,100339.23
2018-10-06T13:59:29.690Z,100344.17
2018-10-06T14:01:58.322Z,100340.75
2018-10-06T14:04:26.870Z,100332.48
2018-10-06T14:06:55.387Z,100339.84
2018-10-06T14:09:23.940Z,100339.39
2018-10-06T14:11:52.458Z,100334.95
2018-10-06T14:14:20.963Z,100332.67
2018-10-06T14:16:49.841Z,100330.57
2018-10-06T14:19:18.379Z,100335.52
2018-10-06T14:21:46.932Z,100321.09
2018-10-06T14:24:15.771Z,100331.08
2018-10-06T14:26:44.290Z,100324.84
2018-10-06T14:29:12.824Z,100319.27
2018-10-06T14:31:41.448Z,100321.61
2018-10-06T14:34:10.417Z,100312.83
2018-10-06T14:36:39.217Z,100312.28
2018-10-06T14:39:10.505Z,100310.20
2018-10-06T14:41:39.042Z,100308.11
2018-10-06T14:44:07.636Z,100312.97
2018-10-06T14:46:36.193Z,100311.19
2018-10-06T14:49:06.135Z,100303.44
2018-10-06T14:51:34.704Z,100304.19
2018-10-06T14:54:05.237Z,100310.39
2018-10-06T14:56:33.781Z,100308.16
2018-10-06T14:59:04.392Z,100303.10
2018-10-06T15:01:32.932Z,100311.27
2018-10-06T15:04:03.172Z,100305.48
2018-10-06T15:06:31.865Z,100310.30
2018-10-06T15:09:00.763Z,100309.70
2018-10-06T15:11:29.299Z,100308.36
2018-10-06T15:13:57.854Z,100308.81
2018-10-06T15:16:26.375Z,100311.96
2018-10-06T15:18:54.965Z,100309.05
2018-10-06T15:21:23.700Z,100307.16
2018-10-06T15:23:52.206Z,100306.03
2018-10-06T15:26:20.788Z,100297.71
2018-10-06T15:28:49.425Z,100305.30
2018-10-06T15:31:17.943Z,100306.45
2018-10-06T15:33:46.549Z,100308.37
2018-10-06T15:36:15.091Z,100308.23
2018-10-06T15:38:43.690Z,100306.11
2018-10-06T15:41:12.233Z,100312.61
2018-10-06T15:43:41.088Z,100310.29
2018-10-06T15:46:09.801Z,100305.29
2018-10-06T15:48:38.355Z,100306.11
2018-10-06T15:51:07.059Z,100309.66
2018-10-06T15:53:35.552Z,100304.31
2018-10-06T15:56:05.160Z,100304.82
2018-10-06T15:58:33.719Z,100308.55
2018-10-06T16:01:03.878Z,100303.48
2018-10-06T16:03:32.496Z,100302.89
2018-10-06T16:06:03.498Z,100306.61
2018-10-06T16:08:32.134Z,100305.59
2018-10-06T16:11:03.223Z,100306.46
2018-10-06T16:13:31.817Z,100309.28
2018-10-06T16:16:00.834Z,100314.72
2018-10-06T16:18:29.340Z,100318.45
2018-10-06T16:20:57.947Z,100313.80
2018-10-06T16:23:26.465Z,100325.52
2018-10-06T16:25:55.004Z,100322.34
2018-10-06T16:28:23.562Z,100320.45
2018-10-06T16:30:52.156Z,100330.46
2018-10-06T16:33:21.086Z,100330.31
2018-10-06T16:35:49.601Z,100329.09
2018-10-06T16:38:18.090Z,100327.58
2018-10-06T16:40:46.652Z,100325.14
2018-10-06T16:43:15.162Z,100329.67
2018-10-06T16:45:43.705Z,100329.86
2018-10-06T16:48:12.510Z,100332.83
2018-10-06T16:50:41.350Z,100332.83
2018-10-06T16:53:10.077Z,100338.48
2018-10-06T16:55:38.704Z,100341.31
2018-10-06T16:58:08.645Z,100346.98
2018-10-06T17:00:37.300Z,100345.32
2018-10-06T17:03:07.144Z,100347.25
2018-10-06T17:05:35.671Z,100359.20
2018-10-06T17:08:06.420Z,100362.08
2018-10-06T17:10:34.983Z,100364.05
2018-10-06T17:13:05.509Z,100352.16
2018-10-06T17:15:34.127Z,100351.06
2018-10-06T17:18:03.824Z,100354.80
2018-10-06T17:20:32.802Z,100349.52
2018-10-06T17:23:02.865Z,100346.75
2018-10-06T17:25:31.385Z,100352.10
2018-10-06T17:28:00.232Z,100350.60
2018-10-06T17:30:28.721Z,100345.16
2018-10-06T17:32:57.212Z,100348.61
2018-10-06T17:35:25.777Z,100353.70
2018-10-06T17:37:54.336Z,100353.19
2018-10-06T17:40:23.237Z,100362.37
2018-10-06T17:42:51.787Z,100366.20
2018-10-06T17:45:20.328Z,100364.56
2018-10-06T17:47:49.183Z,100371.17
2018-10-06T17:50:17.872Z,100369.39
2018-10-06T17:52:46.242Z,100375.67
2018-10-06T17:55:14.792Z,100372.32
2018-10-06T17:57:43.310Z,100377.60
2018-10-06T18:00:11.873Z,100374.58
2018-10-06T18:02:40.407Z,100375.73
2018-10-06T18:05:08.919Z,100378.81
2018-10-06T18:07:37.764Z,100378.14
2018-10-06T18:10:06.317Z,100382.05
2018-10-06T18:12:34.875Z,100389.30
2018-10-06T18:15:05.898Z,100395.27
2018-10-06T18:17:34.434Z,100395.89
2018-10-06T18:20:05.069Z,100398.59
2018-10-06T18:22:33.815Z,100396.43
2018-10-06T18:25:04.712Z,100397.56
2018-10-06T18:27:33.248Z,100393.80
2018-10-06T18:30:02.739Z,100393.61
2018-10-06T18:32:31.246Z,100398.91
2018-10-06T18:34:59.966Z,100399.50
2018-10-06T18:37:28.496Z,100400.09
2018-10-06T18:39:57.040Z,100399.84
2018-10-06T18:42:25.538Z,100404.00
2018-10-06T18:44:54.041Z,100399.12
2018-10-06T18:47:23.806Z,100404.88
2018-10-06T18:49:52.437Z,100405.72
2018-10-06T18:52:20.972Z,100412.28
2018-10-06T18:54:49.538Z,100418.84
2018-10-06T18:57:18.062Z,100422.92
2018-10-06T18:59:46.573Z,100428.91
2018-10-06T19:02:15.116Z,100429.19
2018-10-06T19:04:43.960Z,100426.18
2018-10-06T19:07:12.481Z,100435.19
2018-10-06T19:09:40.977Z,100435.20
2018-10-06T19:12:09.537Z,100428.92
2018-10-06T19:14:38.186Z,100431.67
2018-10-06T19:17:07.194Z,100432.75
2018-10-06T19:19:35.702Z,100443.95
2018-10-06T19:22:05.502Z,100444.50
2018-10-06T19:24:34.310Z,100447.49
2018-10-06T19:27:04.533Z,100449.12
2018-10-06T19:29:33.145Z,100457.05
2018-10-06T19:32:02.867Z,100454.84
2018-10-06T19:34:31.387Z,100462.24
2018-10-06T19:36:59.969Z,100465.22
2018-10-06T19:39:28.504Z,100473.13
2018-10-06T19:41:57.214Z,100472.88
2018-10-06T19:44:25.790Z,100473.97
2018-10-06T19:46:54.363Z,100479.44
2018-10-06T19:49:22.856Z,100485.17
2018-10-06T19:51:51.380Z,100490.64
2018-10-06T19:54:19.980Z,100492.81
2018-10-06T19:56:48.537Z,100495.84
2018-10-06T19:59:17.153Z,100499.38
2018-10-06T20:01:45.683Z,100517.12
2018-10-06T20:04:14.383Z,100522.32
2018-10-06T20:06:42.927Z,100522.33
2018-10-06T20:09:11.912Z,100529.16
2018-10-06T20:11:40.469Z,100528.59
2018-10-06T20:14:09.219Z,100533.25
2018-10-06T20:16:37.750Z,100533.52
2018-10-06T20:19:06.366Z,100537.61
2018-10-06T20:21:34.941Z,100537.87
2018-10-06T20:24:07.486Z,100539.23
2018-10-06T20:26:36.813Z,100538.41
2018-10-06T20:29:06.475Z,100532.13
2018-10-06T20:31:34.990Z,100544.45
2018-10-06T20:34:05.958Z,100547.69
2018-10-06T20:36:34.485Z,100541.15
2018-10-06T20:39:08.361Z,100543.34
2018-10-06T20:41:36.878Z,100547.72
2018-10-06T20:44:05.475Z,100556.73
2018-10-06T20:46:34.361Z,100557.55
2018-10-06T20:49:04.987Z,100559.69
2018-10-06T20:51:33.498Z,100565.72
2018-10-06T20:54:07.017Z,100571.17
2018-10-06T20:56:36.100Z,100591.40
2018-10-06T20:59:06.471Z,100594.95
2018-10-06T21:01:35.064Z,100610.23
2018-10-06T21:04:06.072Z,100611.30
2018-10-06T21:06:34.596Z,100607.58
2018-10-06T21:09:06.128Z,100616.80
2018-10-06T21:11:34.620Z,100624.61
2018-10-06T21:14:04.827Z,100623.97
2018-10-06T21:16:33.533Z,100630.45
2018-10-06T21:19:04.873Z,100640.01
2018-10-06T21:21:33.629Z,100651.75
2018-10-06T21:24:03.410Z,100659.61
2018-10-06T21:26:31.954Z,100679.42
2018-10-06T21:29:00.537Z,100701.24
2018-10-06T21:31:29.179Z,100697.63
2018-10-06T21:33:57.655Z,100695.88
2018-10-06T21:36:26.180Z,100690.12
2018-10-06T21:38:55.012Z,100678.56
2018-10-06T21:41:23.562Z,100666.36
2018-10-06T21:43:52.242Z,100675.31
2018-10-06T21:46:20.766Z,100679.85
2018-10-06T21:48:49.326Z,100672.70
2018-10-06T21:51:17.874Z,100684.33
2018-10-06T21:53:46.388Z,100686.01
2018-10-06T21:56:14.954Z,100681.95
2018-10-06T21:58:43.985Z,100677.80
2018-10-06T22:01:13.898Z,100683.95
2018-10-06T22:03:43.233Z,100692.45
2018-10-06T22:06:11.936Z,100683.39
2018-10-06T22:08:40.504Z,100686.91
2018-10-06T22:11:09.413Z,100684.99
2018-10-06T22:13:37.958Z,100693.41
2018-10-06T22:16:08.214Z,100681.42
2018-10-06T22:18:36.814Z,100681.42
2018-10-06T22:21:07.311Z,100677.29
2018-10-06T22:23:35.861Z,100681.03
2018-10-06T22:26:06.204Z,100687.30
2018-10-06T22:28:34.733Z,100678.60
2018-10-06T22:31:08.413Z,100683.19
2018-10-06T22:33:36.944Z,100683.48
2018-10-06T22:36:05.448Z,100683.19
2018-10-06T22:38:33.997Z,100683.41
2018-10-06T22:41:03.805Z,100664.89
2018-10-06T22:43:32.405Z,100673.88
2018-10-06T22:46:00.907Z,100677.11
2018-10-06T22:48:29.429Z,100679.59
2018-10-06T22:50:58.079Z,100681.22
2018-10-06T22:53:26.658Z,100682.61
2018-10-06T22:55:55.311Z,100685.59
2018-10-06T22:58:23.909Z,100689.94
2018-10-06T23:00:52.798Z,100687.78
2018-10-06T23:03:21.425Z,100692.29
2018-10-06T23:05:50.009Z,100689.86
2018-10-06T23:08:18.544Z,100688.45
2018-10-06T23:10:47.173Z,100691.17
2018-10-06T23:13:15.757Z,100697.95
2018-10-06T23:15:44.310Z,100700.34
2018-10-06T23:18:12.829Z,100714.77
2018-10-06T23:20:41.475Z,100718.23
2018-10-06T23:23:10.086Z,100727.75
2018-10-06T23:25:38.741Z,100729.08
2018-10-06T23:28:09.362Z,100737.24
2018-10-06T23:30:38.125Z,100737.75
2018-10-06T23:33:06.891Z,100732.72
2018-10-06T23:35:35.413Z,100738.86
2018-10-06T23:38:07.144Z,100745.82
2018-10-06T23:40:35.624Z,100760.88
2018-10-06T23:43:05.488Z,100786.78
2018-10-06T23:45:34.054Z,100789.23
2018-10-06T23:48:03.934Z,100792.87
2018-10-06T23:50:32.588Z,100796.07
2018-10-06T23:53:02.941Z,100812.72
2018-10-06T23:55:31.453Z,100819.16
2018-10-06T23:57:59.970Z,100827.09
